Time;durP1;ratioP1;P1;durP2;ratioP2;P2;SDS_P1;SDS_P2;PMS_P1;PMS_P2;Temp;Humidity;BMP_temperature;BMP_pressure;BME280_temperature;BME280_humidity;BME280_pressure;Samples;Min_cycle;Max_cycle;Signal;HPM_P1;HPM_P2
2022/01/01 00:01:55;;;;;;;26.37;12.03;;;14.90;99.90;;;;;;6311668;22;20151;-87
2022/01/01 00:04:21;;;;;;;25.07;15.53;;;14.90;99.90;;;;;;6312191;22;20573;-87
2022/01/01 00:06:47;;;;;;;21.37;13.37;;;14.90;99.90;;;;;;6312381;22;20154;-87
2022/01/01 00:09:12;;;;;;;18.97;11.20;;;14.90;99.90;;;;;;6311662;22;20163;-87
2022/01/01 00:11:38;;;;;;;21.43;11.73;;;14.80;99.90;;;;;;6312248;22;20151;-87
2022/01/01 00:14:04;;;;;;;25.27;13.00;;;14.80;99.90;;;;;;6312147;22;20170;-87
2022/01/01 00:16:29;;;;;;;46.00;21.90;;;14.80;99.90;;;;;;6311562;22;20721;-88
2022/01/01 00:18:55;;;;;;;32.60;15.87;;;14.80;99.90;;;;;;6311939;22;20229;-87
2022/01/01 00:21:21;;;;;;;86.17;34.73;;;14.80;99.90;;;;;;6311863;22;20150;-87
2022/01/01 00:23:46;;;;;;;17.90;9.17;;;14.80;99.90;;;;;;6311452;22;20244;-87
2022/01/01 00:26:12;;;;;;;27.03;12.87;;;14.80;99.90;;;;;;6311983;22;20155;-87
2022/01/01 00:28:38;;;;;;;25.03;10.33;;;14.80;99.90;;;;;;6311118;22;20153;-87
2022/01/01 00:31:05;;;;;;;18.87;11.03;;;14.80;99.90;;;;;;6311809;22;20152;-87
2022/01/01 00:33:30;;;;;;;16.80;9.40;;;14.80;99.90;;;;;;6311436;22;20188;-87
2022/01/01 00:35:56;;;;;;;25.10;13.47;;;14.70;99.90;;;;;;6311882;22;20587;-87
2022/01/01 00:38:22;;;;;;;17.63;9.07;;;14.70;99.90;;;;;;6311757;22;20482;-87
2022/01/01 00:40:48;;;;;;;37.67;20.70;;;14.70;99.90;;;;;;6311779;22;20229;-87
2022/01/01 00:43:14;;;;;;;27.77;13.23;;;14.70;99.90;;;;;;6311881;22;20645;-87
2022/01/01 00:45:39;;;;;;;18.97;8.20;;;14.80;99.90;;;;;;6311727;22;20154;-86
2022/01/01 00:48:05;;;;;;;29.13;22.27;;;14.80;99.90;;;;;;6311683;22;20390;-87
2022/01/01 00:50:31;;;;;;;23.67;13.40;;;14.80;99.90;;;;;;6312097;22;20150;-88
2022/01/01 00:52:58;;;;;;;19.50;11.87;;;14.90;99.90;;;;;;6311507;22;20471;-87
2022/01/01 00:55:24;;;;;;;20.07;10.10;;;14.90;99.90;;;;;;6311581;22;20186;-87
2022/01/01 00:57:50;;;;;;;16.60;7.13;;;14.70;99.90;;;;;;6311344;22;20155;-90
2022/01/01 01:00:15;;;;;;;28.33;13.97;;;14.70;99.90;;;;;;6311266;22;20157;-87
2022/01/01 01:02:41;;;;;;;14.67;7.83;;;14.70;99.90;;;;;;6311970;22;20575;-87
2022/01/01 01:05:07;;;;;;;20.10;9.70;;;14.70;99.90;;;;;;6311562;22;20288;-87
2022/01/01 01:07:33;;;;;;;20.23;10.87;;;14.60;99.90;;;;;;6312174;22;20229;-87
2022/01/01 01:09:58;;;;;;;20.90;9.27;;;14.60;99.90;;;;;;6311330;22;20612;-87
2022/01/01 01:12:32;;;;;;;17.57;11.13;;;14.50;99.90;;;;;;6311294;22;20146;-88
2022/01/01 01:14:57;;;;;;;27.63;14.13;;;14.50;99.90;;;;;;6310770;22;20202;-87
2022/01/01 01:17:23;;;;;;;21.10;11.90;;;14.50;99.90;;;;;;6311386;22;20252;-87
2022/01/01 01:19:48;;;;;;;26.27;11.93;;;14.50;99.90;;;;;;6311577;22;20567;-87
2022/01/01 01:22:14;;;;;;;26.20;13.00;;;14.60;99.90;;;;;;6311461;22;20479;-87
2022/01/01 01:24:40;;;;;;;19.60;10.40;;;14.60;99.90;;;;;;6311071;22;20167;-86
2022/01/01 01:27:06;;;;;;;19.50;9.90;;;14.60;99.90;;;;;;6311462;22;20181;-87
2022/01/01 01:29:35;;;;;;;20.73;9.77;;;14.60;99.90;;;;;;6311845;22;20144;-87
2022/01/01 01:32:00;;;;;;;20.43;10.07;;;14.70;99.90;;;;;;6311482;22;20180;-86
2022/01/01 01:34:26;;;;;;;20.20;8.37;;;14.70;99.90;;;;;;6311978;22;20615;-86
2022/01/01 01:36:52;;;;;;;19.30;8.13;;;14.70;99.90;;;;;;6311442;22;20153;-88
2022/01/01 01:39:17;;;;;;;19.27;7.97;;;14.70;99.90;;;;;;6311297;22;20145;-86
2022/01/01 01:41:44;;;;;;;15.30;7.67;;;14.70;99.90;;;;;;6310395;22;20152;-87
2022/01/01 01:44:33;;;;;;;20.63;7.50;;;14.70;99.90;;;;;;6311078;22;20572;-86
2022/01/01 01:47:12;;;;;;;17.93;8.13;;;14.80;99.90;;;;;;6310860;22;20169;-86
2022/01/01 01:49:38;;;;;;;20.30;8.07;;;14.80;99.90;;;;;;6310870;22;20150;-87
2022/01/01 01:52:04;;;;;;;16.77;8.50;;;14.70;99.90;;;;;;6311347;22;20151;-87
2022/01/01 01:54:30;;;;;;;20.97;9.50;;;14.80;99.90;;;;;;6311124;22;20261;-86
2022/01/01 01:56:56;;;;;;;15.37;7.40;;;14.80;99.90;;;;;;6310833;22;20143;-86
2022/01/01 01:59:22;;;;;;;19.03;6.80;;;14.70;99.90;;;;;;6310268;22;20623;-87
2022/01/01 02:01:48;;;;;;;18.67;7.60;;;14.70;99.90;;;;;;6311317;22;20266;-86
2022/01/01 02:04:13;;;;;;;20.03;7.83;;;14.60;99.90;;;;;;6311448;22;20141;-86
2022/01/01 02:06:41;;;;;;;17.67;7.87;;;14.50;99.90;;;;;;6311543;22;20547;-86
2022/01/01 02:09:09;;;;;;;14.30;6.63;;;14.60;99.90;;;;;;6310574;22;20532;-87
2022/01/01 02:11:35;;;;;;;14.67;7.03;;;14.70;99.90;;;;;;6310718;22;20152;-85
2022/01/01 02:14:08;;;;;;;12.93;6.23;;;14.60;99.90;;;;;;6311353;22;20175;-86
2022/01/01 02:16:52;;;;;;;17.47;6.20;;;14.60;99.90;;;;;;6310888;22;20175;-86
2022/01/01 02:19:23;;;;;;;12.70;5.17;;;14.70;99.90;;;;;;6311520;22;20594;-86
2022/01/01 02:21:49;;;;;;;15.73;5.77;;;14.60;99.90;;;;;;6311547;22;20610;-86
2022/01/01 02:24:14;;;;;;;14.57;5.70;;;14.60;99.90;;;;;;6311250;22;20253;-86
2022/01/01 02:26:40;;;;;;;17.80;5.60;;;14.60;99.90;;;;;;6310826;22;20571;-86
2022/01/01 02:29:05;;;;;;;12.93;5.27;;;14.70;99.90;;;;;;6311347;22;20150;-86
2022/01/01 02:31:33;;;;;;;14.13;4.23;;;14.60;99.90;;;;;;6311229;22;20138;-86
2022/01/01 02:34:06;;;;;;;9.37;5.03;;;14.60;99.90;;;;;;6311429;22;20292;-86
2022/01/01 02:36:37;;;;;;;11.40;5.07;;;14.60;99.90;;;;;;6310320;22;20165;-86
2022/01/01 02:39:18;;;;;;;12.17;3.87;;;14.60;99.90;;;;;;6311225;22;20195;-87
2022/01/01 02:41:45;;;;;;;8.97;4.67;;;14.50;99.90;;;;;;6311765;22;20187;-86
2022/01/01 02:44:11;;;;;;;11.83;4.63;;;14.50;99.90;;;;;;6311210;22;20185;-87
2022/01/01 02:46:36;;;;;;;18.93;6.03;;;14.50;99.90;;;;;;6311045;22;20150;-87
2022/01/01 02:49:03;;;;;;;15.63;4.80;;;14.50;99.90;;;;;;6311213;22;20173;-86
2022/01/01 02:51:29;;;;;;;11.20;4.53;;;14.40;99.90;;;;;;6311116;22;20150;-86
2022/01/01 02:53:56;;;;;;;9.57;4.00;;;14.30;99.90;;;;;;6310670;22;20175;-86
2022/01/01 02:56:22;;;;;;;10.73;4.60;;;14.40;99.90;;;;;;6311376;22;20142;-85
2022/01/01 02:58:48;;;;;;;12.77;4.30;;;14.40;99.90;;;;;;6311556;22;20146;-86
2022/01/01 03:01:14;;;;;;;10.23;4.87;;;14.40;99.90;;;;;;6311291;22;20142;-87
2022/01/01 03:03:39;;;;;;;15.53;5.23;;;14.40;99.90;;;;;;6311027;22;20197;-87
2022/01/01 03:06:05;;;;;;;13.63;4.50;;;14.40;99.90;;;;;;6310930;22;20150;-87
2022/01/01 03:08:31;;;;;;;10.70;4.70;;;14.40;99.90;;;;;;6310573;22;20247;-86
2022/01/01 03:10:56;;;;;;;18.20;7.73;;;14.20;99.90;;;;;;6311295;22;20222;-86
2022/01/01 03:13:22;;;;;;;16.10;5.63;;;14.20;99.90;;;;;;6312706;22;20141;-86
2022/01/01 03:15:48;;;;;;;13.90;5.90;;;14.10;99.90;;;;;;6313206;22;20199;-86
2022/01/01 03:18:14;;;;;;;11.63;4.83;;;14.20;99.90;;;;;;6312824;22;20162;-86
2022/01/01 03:20:40;;;;;;;10.47;4.67;;;14.30;99.90;;;;;;6312943;22;20151;-86
2022/01/01 03:23:05;;;;;;;13.00;6.20;;;14.20;99.90;;;;;;6312425;22;20193;-87
2022/01/01 03:25:31;;;;;;;13.00;4.80;;;14.10;99.90;;;;;;6312987;22;20141;-86
2022/01/01 03:27:57;;;;;;;11.83;4.80;;;14.10;99.90;;;;;;6312760;22;20237;-86
2022/01/01 03:30:22;;;;;;;18.97;5.47;;;14.20;99.90;;;;;;6312856;22;20183;-87
2022/01/01 03:32:49;;;;;;;14.13;5.13;;;14.20;99.90;;;;;;6312674;22;20151;-86
2022/01/01 03:35:15;;;;;;;11.77;4.57;;;14.20;99.90;;;;;;6312913;22;20173;-86
2022/01/01 03:37:40;;;;;;;12.80;4.80;;;14.10;99.90;;;;;;6312376;22;20162;-86
2022/01/01 03:40:07;;;;;;;13.77;5.00;;;14.10;99.90;;;;;;6313006;22;20586;-86
2022/01/01 03:42:33;;;;;;;16.17;5.80;;;14.10;99.90;;;;;;6312465;22;20151;-87
2022/01/01 03:44:58;;;;;;;13.40;4.93;;;14.10;99.90;;;;;;6313165;22;20154;-87
2022/01/01 03:47:24;;;;;;;11.30;4.87;;;14.20;99.90;;;;;;6312428;22;20162;-86
2022/01/01 03:49:50;;;;;;;9.93;4.37;;;14.20;99.90;;;;;;6312864;22;20157;-86
2022/01/01 03:52:16;;;;;;;13.97;5.03;;;14.20;99.90;;;;;;6312496;22;20623;-86
2022/01/01 03:54:41;;;;;;;10.43;4.77;;;14.20;99.90;;;;;;6312614;22;20178;-87
2022/01/01 03:57:07;;;;;;;10.20;4.53;;;14.20;99.90;;;;;;6312595;22;20224;-86
2022/01/01 03:59:33;;;;;;;10.90;4.37;;;14.20;99.90;;;;;;6312601;22;20200;-87
2022/01/01 04:01:59;;;;;;;18.20;4.73;;;14.10;99.90;;;;;;6312558;22;20142;-86
2022/01/01 04:04:25;;;;;;;14.30;4.90;;;14.10;99.90;;;;;;6312537;22;20593;-87
2022/01/01 04:06:53;;;;;;;9.27;4.80;;;14.00;99.90;;;;;;6312545;22;20146;-86
2022/01/01 04:09:19;;;;;;;10.73;3.83;;;14.00;99.90;;;;;;6312387;22;20566;-86
2022/01/01 04:11:44;;;;;;;10.87;4.73;;;13.80;99.90;;;;;;6312767;22;20142;-87
2022/01/01 04:14:12;;;;;;;13.67;4.60;;;13.80;99.90;;;;;;6312203;22;20609;-87
2022/01/01 04:16:39;;;;;;;11.63;4.70;;;13.80;99.90;;;;;;6312443;22;20173;-86
2022/01/01 04:19:05;;;;;;;9.47;4.60;;;13.80;99.90;;;;;;6312173;22;20633;-87
2022/01/01 04:21:30;;;;;;;13.97;5.30;;;13.80;99.90;;;;;;6311822;22;20147;-87
2022/01/01 04:23:56;;;;;;;12.23;5.00;;;13.90;99.90;;;;;;6311761;22;20645;-86
2022/01/01 04:26:23;;;;;;;13.13;4.20;;;13.90;99.90;;;;;;6312224;22;20149;-86
2022/01/01 04:28:48;;;;;;;12.63;4.37;;;13.90;99.90;;;;;;6312095;22;20526;-86
2022/01/01 04:31:15;;;;;;;17.00;5.03;;;13.80;99.90;;;;;;6312427;22;20145;-86
2022/01/01 04:33:42;;;;;;;13.40;5.40;;;13.80;99.90;;;;;;6311893;22;20166;-86
2022/01/01 04:36:07;;;;;;;10.10;5.47;;;13.60;99.90;;;;;;6311885;22;20146;-86
2022/01/01 04:38:37;;;;;;;9.47;4.50;;;13.60;99.90;;;;;;6312105;22;20453;-86
2022/01/01 04:41:12;;;;;;;13.20;5.43;;;13.70;99.90;;;;;;6312007;22;20596;-86
2022/01/01 04:43:40;;;;;;;17.13;5.00;;;13.70;99.90;;;;;;6312157;22;20145;-86
2022/01/01 04:46:07;;;;;;;10.77;4.30;;;13.60;99.90;;;;;;6312084;22;20540;-86
2022/01/01 04:48:36;;;;;;;10.20;4.77;;;13.70;99.90;;;;;;6312163;22;20184;-86
2022/01/01 04:51:09;;;;;;;19.30;4.73;;;13.70;99.90;;;;;;6311860;22;20145;-86
2022/01/01 04:53:36;;;;;;;10.00;4.13;;;13.60;99.90;;;;;;6312101;22;20212;-87
2022/01/01 04:56:06;;;;;;;15.67;4.10;;;13.60;99.90;;;;;;6311892;22;20238;-86
2022/01/01 04:58:32;;;;;;;10.00;4.00;;;13.70;99.90;;;;;;6311995;22;20194;-86
2022/01/01 05:00:57;;;;;;;12.63;4.20;;;13.80;99.90;;;;;;6311930;22;20228;-86
2022/01/01 05:03:23;;;;;;;14.97;4.67;;;13.80;99.90;;;;;;6311931;22;20144;-86
2022/01/01 05:05:48;;;;;;;9.70;4.50;;;13.80;99.90;;;;;;6311704;22;20237;-86
2022/01/01 05:08:14;;;;;;;11.93;4.30;;;13.70;99.90;;;;;;6311999;22;20482;-86
2022/01/01 05:10:40;;;;;;;10.50;4.10;;;13.70;99.90;;;;;;6311910;22;20186;-85
2022/01/01 05:13:06;;;;;;;10.93;4.40;;;13.70;99.90;;;;;;6312196;22;20165;-86
2022/01/01 05:15:32;;;;;;;12.27;4.10;;;13.80;99.90;;;;;;6311272;22;20184;-86
2022/01/01 05:17:57;;;;;;;8.87;4.63;;;13.80;99.90;;;;;;6311801;22;20161;-87
2022/01/01 05:20:23;;;;;;;14.50;4.43;;;13.80;99.90;;;;;;6311376;22;20155;-86
2022/01/01 05:22:50;;;;;;;8.03;3.83;;;13.80;99.90;;;;;;6311781;22;20151;-86
2022/01/01 05:25:16;;;;;;;11.90;4.00;;;13.90;99.90;;;;;;6311764;22;20176;-86
2022/01/01 05:27:42;;;;;;;11.13;4.27;;;13.80;99.90;;;;;;6312296;22;20165;-86
2022/01/01 05:30:09;;;;;;;12.07;4.43;;;13.90;99.90;;;;;;6311695;22;20145;-87
2022/01/01 05:32:35;;;;;;;10.30;4.17;;;13.90;99.90;;;;;;6311594;22;20207;-87
2022/01/01 05:35:00;;;;;;;11.20;4.40;;;13.90;99.90;;;;;;6311200;22;20614;-86
2022/01/01 05:37:26;;;;;;;10.37;4.47;;;14.00;99.90;;;;;;6311483;22;20152;-87
2022/01/01 05:39:51;;;;;;;9.90;4.13;;;14.10;99.90;;;;;;6311714;22;20147;-86
2022/01/01 05:42:17;;;;;;;10.00;4.33;;;14.10;99.90;;;;;;6311595;22;20220;-86
2022/01/01 05:44:43;;;;;;;11.23;4.63;;;14.20;99.90;;;;;;6312003;22;20463;-86
2022/01/01 05:47:08;;;;;;;10.23;4.33;;;14.10;99.90;;;;;;6311694;22;20180;-87
2022/01/01 05:49:34;;;;;;;13.63;4.77;;;14.00;99.90;;;;;;6311057;22;20538;-87
2022/01/01 05:52:00;;;;;;;12.27;4.00;;;14.10;99.90;;;;;;6311575;22;20142;-87
2022/01/01 05:54:26;;;;;;;13.30;4.07;;;14.00;99.90;;;;;;6311316;22;20231;-86
2022/01/01 05:56:52;;;;;;;13.00;4.83;;;13.90;99.90;;;;;;6311287;22;20178;-86
2022/01/01 05:59:17;;;;;;;8.93;4.23;;;13.90;99.90;;;;;;6311434;22;20137;-86
2022/01/01 06:01:43;;;;;;;13.47;4.70;;;13.80;99.90;;;;;;6311653;22;20227;-85
2022/01/01 06:04:09;;;;;;;10.20;4.67;;;13.80;99.90;;;;;;6311781;22;20135;-86
2022/01/01 06:06:34;;;;;;;14.10;4.77;;;13.80;99.90;;;;;;6338819;22;20164;-86
2022/01/01 06:09:00;;;;;;;10.57;4.67;;;13.80;99.90;;;;;;6311569;22;20152;-86
2022/01/01 06:11:26;;;;;;;10.17;5.13;;;13.80;99.90;;;;;;6311048;22;20145;-86
2022/01/01 06:13:52;;;;;;;13.10;5.10;;;13.80;99.90;;;;;;6311349;22;20630;-86
2022/01/01 06:16:17;;;;;;;9.90;4.53;;;13.70;99.90;;;;;;6311029;22;20153;-87
2022/01/01 06:18:43;;;;;;;10.13;4.97;;;13.70;99.90;;;;;;6310993;22;20153;-87
2022/01/01 06:21:08;;;;;;;9.33;4.73;;;13.70;99.90;;;;;;6311952;22;20569;-87
2022/01/01 06:23:37;;;;;;;12.90;5.17;;;13.70;99.90;;;;;;6311435;22;20180;-86
2022/01/01 06:26:03;;;;;;;10.27;4.97;;;13.70;99.90;;;;;;6311415;22;20146;-86
2022/01/01 06:28:29;;;;;;;16.70;5.10;;;13.50;99.90;;;;;;6311367;22;20149;-86
2022/01/01 06:30:55;;;;;;;12.83;5.50;;;13.50;99.90;;;;;;6311363;22;20145;-87
2022/01/01 06:33:21;;;;;;;11.43;5.47;;;13.50;99.90;;;;;;6310922;22;20152;-86
2022/01/01 06:35:48;;;;;;;13.97;5.63;;;13.40;99.90;;;;;;6311356;22;20642;-86
2022/01/01 06:38:15;;;;;;;16.87;6.20;;;13.40;99.90;;;;;;6311267;22;20575;-87
2022/01/01 06:40:43;;;;;;;15.93;6.07;;;13.40;99.90;;;;;;6311443;22;20165;-86
2022/01/01 06:43:14;;;;;;;16.17;5.73;;;13.40;99.90;;;;;;6311489;22;20155;-86
2022/01/01 06:45:41;;;;;;;13.27;5.70;;;13.40;99.90;;;;;;6311568;22;20149;-86
2022/01/01 06:48:06;;;;;;;15.23;6.73;;;13.30;99.90;;;;;;6312738;22;20154;-86
2022/01/01 06:50:33;;;;;;;11.33;5.43;;;13.20;99.90;;;;;;6313157;22;20153;-87
2022/01/01 06:52:58;;;;;;;10.73;5.83;;;13.20;99.90;;;;;;6313299;22;20214;-86
2022/01/01 06:55:24;;;;;;;10.30;5.67;;;13.20;99.90;;;;;;6312884;22;20189;-87
2022/01/01 06:57:50;;;;;;;16.07;6.67;;;13.20;99.90;;;;;;6313195;22;20156;-87
2022/01/01 07:00:16;;;;;;;17.13;6.37;;;13.20;99.90;;;;;;6313009;22;20192;-85
2022/01/01 07:02:44;;;;;;;15.10;5.30;;;13.10;99.90;;;;;;6313083;22;20170;-86
2022/01/01 07:05:10;;;;;;;11.73;5.90;;;13.10;99.90;;;;;;6313198;22;20142;-86
2022/01/01 07:07:36;;;;;;;14.73;6.23;;;13.10;99.90;;;;;;6312707;22;20150;-87
2022/01/01 07:10:03;;;;;;;11.80;6.70;;;13.10;99.90;;;;;;6312916;22;20243;-86
2022/01/01 07:12:29;;;;;;;21.03;7.40;;;13.00;99.90;;;;;;6312834;22;20176;-86
2022/01/01 07:14:55;;;;;;;13.13;6.40;;;12.90;99.90;;;;;;6312806;22;20180;-87
2022/01/01 07:17:20;;;;;;;15.17;6.50;;;12.90;99.90;;;;;;6313007;22;20165;-86
2022/01/01 07:19:46;;;;;;;18.30;8.87;;;12.90;99.90;;;;;;6313245;22;20481;-86
2022/01/01 07:22:14;;;;;;;20.37;8.77;;;12.90;99.90;;;;;;6313012;22;20184;-85
2022/01/01 07:24:40;;;;;;;16.47;7.10;;;12.90;99.90;;;;;;6312669;22;20173;-86
2022/01/01 07:27:06;;;;;;;12.10;6.53;;;13.00;99.90;;;;;;6313025;22;20235;-86
2022/01/01 07:29:31;;;;;;;16.37;7.33;;;13.00;99.90;;;;;;6312544;22;20216;-86
2022/01/01 07:31:57;;;;;;;13.67;7.00;;;12.90;99.90;;;;;;6312718;22;20203;-86
2022/01/01 07:34:23;;;;;;;14.00;6.63;;;13.00;99.90;;;;;;6312686;22;20648;-86
2022/01/01 07:36:49;;;;;;;12.70;7.60;;;13.00;99.90;;;;;;6312921;22;20152;-86
2022/01/01 07:39:15;;;;;;;14.37;6.23;;;12.90;99.90;;;;;;6312449;22;20149;-86
2022/01/01 07:41:41;;;;;;;14.57;7.23;;;13.00;99.90;;;;;;6313219;22;20454;-86
2022/01/01 07:44:07;;;;;;;13.97;6.63;;;13.00;99.90;;;;;;6312425;22;20600;-86
2022/01/01 07:46:33;;;;;;;13.33;7.53;;;13.00;99.90;;;;;;6312694;22;20240;-86
2022/01/01 07:48:58;;;;;;;14.70;7.17;;;12.90;99.90;;;;;;6312663;22;20220;-86
2022/01/01 07:51:24;;;;;;;13.10;6.80;;;12.90;99.90;;;;;;6312623;22;20147;-86
2022/01/01 07:53:52;;;;;;;15.90;7.03;;;12.80;99.90;;;;;;6313012;22;20177;-86
2022/01/01 07:56:17;;;;;;;15.60;6.67;;;12.80;99.90;;;;;;6313106;22;20149;-86
2022/01/01 07:58:43;;;;;;;10.53;6.60;;;12.80;99.90;;;;;;6311606;22;20160;-86
2022/01/01 08:01:09;;;;;;;17.00;6.93;;;12.90;99.90;;;;;;6312715;22;20172;-86
2022/01/01 08:03:34;;;;;;;14.30;6.67;;;12.80;99.90;;;;;;6312107;22;20149;-87
2022/01/01 08:06:00;;;;;;;15.30;6.90;;;12.80;99.90;;;;;;6312891;22;20154;-86
2022/01/01 08:08:26;;;;;;;12.93;6.93;;;12.80;99.90;;;;;;6312270;22;20152;-87
2022/01/01 08:10:51;;;;;;;13.27;6.60;;;12.80;99.90;;;;;;6312521;22;20152;-86
2022/01/01 08:13:24;;;;;;;12.50;7.63;;;12.90;99.90;;;;;;6312918;22;20145;-86
2022/01/01 08:15:56;;;;;;;17.07;7.90;;;12.90;99.90;;;;;;6312429;22;20204;-86
2022/01/01 08:18:22;;;;;;;14.97;8.30;;;12.90;99.90;;;;;;6312307;22;20470;-86
2022/01/01 08:20:48;;;;;;;10.47;7.37;;;13.00;99.90;;;;;;6311681;22;20199;-85
2022/01/01 08:23:15;;;;;;;13.20;7.90;;;13.00;99.90;;;;;;6312296;22;20176;-87
2022/01/01 08:25:41;;;;;;;19.57;8.23;;;13.00;99.90;;;;;;6312305;22;20187;-86
2022/01/01 08:28:07;;;;;;;13.93;8.17;;;13.00;99.90;;;;;;6312094;22;20149;-86
2022/01/01 08:30:34;;;;;;;15.27;8.57;;;12.90;99.90;;;;;;6312149;22;20154;-86
2022/01/01 08:33:03;;;;;;;18.83;9.63;;;12.70;99.90;;;;;;6312411;22;20667;-87
2022/01/01 08:35:31;;;;;;;17.53;8.73;;;12.50;99.90;;;;;;6311721;22;20521;-87
2022/01/01 08:37:57;;;;;;;17.60;10.03;;;12.50;99.90;;;;;;6312294;22;20152;-88
2022/01/01 08:40:24;;;;;;;16.57;8.90;;;12.50;99.90;;;;;;6312517;22;20225;-86
2022/01/01 08:42:49;;;;;;;18.47;9.20;;;12.50;99.90;;;;;;6312258;22;20145;-87
2022/01/01 08:45:15;;;;;;;13.47;8.60;;;12.50;99.90;;;;;;6312304;22;20145;-86
2022/01/01 08:47:42;;;;;;;14.00;8.10;;;12.50;99.90;;;;;;6312433;22;20574;-87
2022/01/01 08:50:09;;;;;;;14.60;9.27;;;12.40;99.90;;;;;;6311923;22;20478;-87
2022/01/01 08:52:35;;;;;;;14.77;8.57;;;12.30;99.90;;;;;;6312262;22;20152;-86
2022/01/01 08:55:01;;;;;;;16.00;9.30;;;12.40;99.90;;;;;;6311367;22;20213;-86
2022/01/01 08:57:29;;;;;;;14.90;8.73;;;12.30;99.90;;;;;;6312278;22;20218;-87
2022/01/01 08:59:55;;;;;;;14.97;8.43;;;12.50;99.90;;;;;;6311925;22;20589;-86
2022/01/01 09:02:21;;;;;;;14.70;8.10;;;12.60;99.90;;;;;;6312049;22;20159;-87
2022/01/01 09:04:46;;;;;;;16.10;8.40;;;12.70;99.90;;;;;;6311883;22;20145;-87
2022/01/01 09:07:12;;;;;;;13.53;8.47;;;12.70;99.90;;;;;;6311919;22;20141;-86
2022/01/01 09:09:39;;;;;;;14.60;8.33;;;12.80;99.90;;;;;;6311787;22;20236;-87
2022/01/01 09:12:07;;;;;;;15.07;8.43;;;12.90;99.90;;;;;;6311997;22;20142;-87
2022/01/01 09:14:32;;;;;;;14.00;8.27;;;12.90;99.90;;;;;;6311847;22;20210;-87
2022/01/01 09:16:58;;;;;;;15.70;8.40;;;12.90;99.90;;;;;;6311678;22;20227;-87
2022/01/01 09:19:24;;;;;;;15.67;8.50;;;13.00;99.90;;;;;;6311747;22;20644;-87
2022/01/01 09:21:49;;;;;;;13.10;8.93;;;12.90;99.90;;;;;;6311815;22;20219;-86
2022/01/01 09:24:16;;;;;;;18.37;9.97;;;12.80;99.90;;;;;;6311914;22;20241;-87
2022/01/01 09:26:41;;;;;;;14.33;9.50;;;12.90;99.90;;;;;;6311311;22;20149;-87
2022/01/01 09:29:09;;;;;;;13.27;9.27;;;12.90;99.90;;;;;;6311889;22;20210;-87
2022/01/01 09:31:39;;;;;;;14.20;8.63;;;13.00;99.90;;;;;;6311691;22;20151;-87
2022/01/01 09:34:05;;;;;;;15.47;9.73;;;13.00;99.90;;;;;;6311802;22;20201;-87
2022/01/01 09:36:31;;;;;;;13.73;8.50;;;13.00;99.90;;;;;;6311474;22;20150;-85
2022/01/01 09:38:57;;;;;;;15.37;9.57;;;13.10;99.90;;;;;;6311725;22;20456;-87
2022/01/01 09:41:23;;;;;;;12.10;8.50;;;13.30;99.90;;;;;;6311383;22;20141;-87
2022/01/01 09:43:53;;;;;;;13.27;8.73;;;13.30;99.90;;;;;;6311751;22;20137;-87
2022/01/01 09:46:19;;;;;;;14.53;8.50;;;13.30;99.90;;;;;;6311450;22;20181;-87
2022/01/01 09:48:45;;;;;;;13.37;8.67;;;13.30;99.90;;;;;;6311761;22;20207;-87
2022/01/01 09:51:11;;;;;;;12.70;8.30;;;13.30;99.90;;;;;;6311701;22;20648;-86
2022/01/01 09:53:36;;;;;;;12.87;8.07;;;13.20;99.90;;;;;;6311407;22;20184;-87
2022/01/01 09:56:03;;;;;;;11.17;7.50;;;13.30;99.90;;;;;;6311252;22;20577;-88
2022/01/01 09:58:31;;;;;;;12.20;7.33;;;13.30;99.90;;;;;;6311455;22;20142;-87
2022/01/01 10:00:57;;;;;;;12.20;7.50;;;13.40;99.90;;;;;;6311522;22;20582;-87
2022/01/01 10:03:44;;;;;;;11.13;7.30;;;13.50;99.90;;;;;;6311505;22;20146;-88
2022/01/01 10:06:12;;;;;;;12.07;6.57;;;13.60;99.90;;;;;;6311444;22;20181;-87
2022/01/01 10:08:40;;;;;;;10.53;6.73;;;13.60;99.90;;;;;;6311488;22;20145;-86
2022/01/01 10:11:07;;;;;;;14.10;6.43;;;13.50;99.90;;;;;;6311233;22;20141;-87
2022/01/01 10:13:36;;;;;;;10.20;6.47;;;13.40;99.90;;;;;;6311680;22;20268;-87
2022/01/01 10:16:06;;;;;;;8.97;5.70;;;13.40;99.90;;;;;;6311190;22;20157;-86
2022/01/01 10:18:43;;;;;;;9.97;6.10;;;13.40;99.90;;;;;;6311164;22;20157;-87
2022/01/01 10:21:10;;;;;;;9.77;5.30;;;13.40;99.90;;;;;;6310636;22;20190;-87
2022/01/01 10:23:38;;;;;;;9.60;5.90;;;13.60;99.90;;;;;;6310808;22;20614;-86
2022/01/01 10:29:04;;;;;;;8.90;5.43;;;13.80;99.90;;;;;;6339266;22;20263;-87
2022/01/01 10:31:33;;;;;;;7.80;4.60;;;13.90;99.90;;;;;;6311370;22;20153;-86
2022/01/01 10:33:59;;;;;;;10.73;5.17;;;14.00;99.90;;;;;;6311070;22;20256;-87
2022/01/01 10:36:25;;;;;;;7.97;4.73;;;14.30;99.90;;;;;;6310861;22;20157;-87
2022/01/01 10:38:50;;;;;;;7.93;4.10;;;14.50;99.90;;;;;;6310117;22;20613;-87
2022/01/01 10:41:17;;;;;;;9.43;4.50;;;14.90;99.90;;;;;;6310701;22;20153;-86
2022/01/01 10:43:44;;;;;;;6.10;4.10;;;15.30;99.90;;;;;;6309963;22;20152;-87
2022/01/01 10:46:19;;;;;;;5.63;3.80;;;15.70;99.90;;;;;;6304308;22;20171;-87
2022/01/01 10:51:13;;;;;;;5.47;3.90;;;16.40;99.90;;;;;;6349275;22;20136;-87
2022/01/01 10:53:39;;;;;;;4.40;3.20;;;16.80;99.90;;;;;;6310054;22;20195;-87
2022/01/01 10:56:17;;;;;;;5.23;3.17;;;17.30;99.90;;;;;;6310508;22;20157;-88
2022/01/01 10:58:43;;;;;;;3.70;2.70;;;17.60;99.90;;;;;;6311218;22;20460;-87
2022/01/01 11:01:09;;;;;;;4.67;2.70;;;17.60;99.90;;;;;;6311076;22;20237;-87
2022/01/01 11:03:42;;;;;;;5.83;2.47;;;17.60;99.90;;;;;;6310598;22;20157;-88
2022/01/01 11:06:13;;;;;;;6.33;2.40;;;18.10;99.90;;;;;;6311111;22;20242;-87
2022/01/01 11:08:44;;;;;;;4.03;2.27;;;18.10;99.90;;;;;;6310847;22;20150;-88
2022/01/01 11:11:10;;;;;;;3.73;2.17;;;18.50;99.90;;;;;;6310816;22;20231;-88
2022/01/01 11:13:37;;;;;;;4.30;2.00;;;19.20;99.90;;;;;;6310524;22;20487;-88
2022/01/01 11:16:05;;;;;;;4.07;2.23;;;19.60;99.90;;;;;;6310536;22;20156;-87
2022/01/01 11:18:32;;;;;;;6.23;2.63;;;20.00;99.90;;;;;;6310825;22;20152;-88
2022/01/01 11:20:59;;;;;;;4.93;2.27;;;19.90;99.90;;;;;;6310975;22;20192;-88
2022/01/01 11:23:26;;;;;;;5.63;2.50;;;19.60;99.90;;;;;;6310551;22;20284;-88
2022/01/01 11:25:52;;;;;;;3.77;2.30;;;19.70;99.90;;;;;;6310936;22;20154;-88
2022/01/01 11:28:20;;;;;;;5.03;2.17;;;19.80;99.90;;;;;;6310488;22;20215;-88
2022/01/01 11:31:07;;;;;;;4.57;2.37;;;19.60;99.90;;;;;;6310517;22;20247;-88
2022/01/01 11:33:44;;;;;;;5.47;2.20;;;19.40;99.90;;;;;;6312370;22;20230;-88
2022/01/01 11:36:22;;;;;;;3.87;2.13;;;19.40;99.90;;;;;;6312291;22;20500;-87
2022/01/01 11:38:48;;;;;;;3.73;2.17;;;19.50;99.90;;;;;;6312288;22;20150;-87
2022/01/01 11:41:17;;;;;;;4.87;1.73;;;19.70;99.90;;;;;;6312414;22;20213;-87
2022/01/01 11:43:43;;;;;;;5.53;2.50;;;20.10;99.90;;;;;;6312535;22;20191;-86
2022/01/01 11:46:10;;;;;;;3.70;1.97;;;20.50;99.90;;;;;;6310347;22;20233;-87
2022/01/01 11:48:39;;;;;;;2.80;1.60;;;20.70;99.90;;;;;;6311976;22;20155;-87
2022/01/01 11:51:32;;;;;;;4.93;2.00;;;21.10;99.90;;;;;;6311793;22;20156;-87
2022/01/01 11:54:18;;;;;;;3.20;1.53;;;21.70;99.90;;;;;;6312714;22;20169;-95
2022/01/01 11:56:50;;;;;;;3.43;1.63;;;22.40;99.90;;;;;;6313517;22;20246;-89
2022/01/01 11:59:33;;;;;;;3.47;1.60;;;22.30;99.90;;;;;;6312369;22;20180;-90
2022/01/01 12:02:23;;;;;;;3.10;1.57;;;21.90;99.90;;;;;;6312912;22;20145;-90
2022/01/01 12:04:55;;;;;;;3.27;1.60;;;22.10;99.90;;;;;;6291025;22;20157;-90
2022/01/01 12:07:21;;;;;;;2.40;1.33;;;21.00;99.90;;;;;;6312791;22;20562;-89
2022/01/01 12:10:02;;;;;;;4.53;1.77;;;20.90;99.90;;;;;;6312521;22;20144;-89
2022/01/01 12:12:52;;;;;;;2.90;1.60;;;21.30;99.90;;;;;;6313036;22;20484;-90
2022/01/01 12:15:35;;;;;;;3.97;1.50;;;21.30;99.90;;;;;;6312425;22;20187;-89
2022/01/01 12:18:17;;;;;;;3.63;1.33;;;20.60;99.90;;;;;;6312528;22;20459;-89
2022/01/01 12:20:46;;;;;;;4.03;1.63;;;20.40;99.90;;;;;;6312118;22;20204;-89
2022/01/01 12:23:18;;;;;;;2.03;1.10;;;20.50;99.90;;;;;;6312958;22;20249;-90
2022/01/01 12:25:44;;;;;;;3.57;1.40;;;20.90;99.90;;;;;;6312633;22;20227;-89
2022/01/01 12:28:18;;;;;;;2.90;1.30;;;21.50;99.90;;;;;;6312685;22;20157;-90
2022/01/01 12:30:54;;;;;;;2.17;1.30;;;22.20;99.90;;;;;;6312413;22;20145;-89
2022/01/01 12:33:22;;;;;;;2.87;1.20;;;22.30;99.90;;;;;;6312278;22;20244;-89
2022/01/01 12:35:56;;;;;;;3.83;1.13;;;21.80;99.90;;;;;;6311708;22;20292;-89
2022/01/01 12:38:26;;;;;;;3.23;1.47;;;21.10;99.90;;;;;;6312217;22;20587;-89
2022/01/01 12:41:05;;;;;;;2.57;1.40;;;20.20;99.90;;;;;;6312164;22;20157;-89
2022/01/01 12:43:53;;;;;;;2.10;1.20;;;19.70;99.90;;;;;;6312239;22;20144;-89
2022/01/01 12:46:27;;;;;;;2.03;1.00;;;19.30;99.90;;;;;;6311457;22;20162;-89